createdAt,value
2022-11-29T00:01:38.568Z,9.75
2022-11-29T00:04:05.721Z,8.98
2022-11-29T00:06:35.215Z,10.40
2022-11-29T00:09:06.563Z,10.15
2022-11-29T00:11:55.193Z,11.35
2022-11-29T00:14:23.248Z,9.88
2022-11-29T00:16:53.274Z,8.93
2022-11-29T00:19:20.675Z,9.75
2022-11-29T00:21:48.019Z,9.30
2022-11-29T00:24:15.849Z,9.77
2022-11-29T00:26:43.055Z,10.45
2022-11-29T00:29:12.277Z,9.70
2022-11-29T00:31:40.179Z,9.48
2022-11-29T00:34:08.114Z,13.65
2022-11-29T00:36:35.670Z,14.43
2022-11-29T00:39:04.747Z,11.43
2022-11-29T00:41:32.838Z,11.60
2022-11-29T00:43:59.927Z,12.32
2022-11-29T00:46:27.034Z,9.90
2022-11-29T00:48:54.237Z,12.43
2022-11-29T00:51:21.954Z,11.85
2022-11-29T00:53:48.940Z,11.27
2022-11-29T00:56:16.387Z,12.00
2022-11-29T00:58:46.097Z,10.07
2022-11-29T01:01:13.227Z,10.75
2022-11-29T01:03:40.578Z,10.20
2022-11-29T01:06:13.997Z,14.57
2022-11-29T01:08:41.839Z,11.45
2022-11-29T01:11:20.523Z,10.93
2022-11-29T01:13:49.077Z,11.02
2022-11-29T01:16:18.277Z,13.43
2022-11-29T01:18:45.533Z,10.20
2022-11-29T01:21:18.534Z,13.88
2022-11-29T01:23:46.706Z,14.10
2022-11-29T01:26:16.219Z,11.88
2022-11-29T01:28:47.352Z,11.73
2022-11-29T01:31:21.019Z,11.45
2022-11-29T01:33:48.140Z,11.90
2022-11-29T01:36:15.648Z,9.45
2022-11-29T01:38:43.183Z,9.85
2022-11-29T01:41:18.704Z,10.85
2022-11-29T01:44:16.305Z,9.02
2022-11-29T01:46:46.226Z,11.65
2022-11-29T01:49:17.772Z,11.80
2022-11-29T01:51:50.514Z,12.85
2022-11-29T01:54:18.399Z,10.07
2022-11-29T01:56:47.142Z,12.48
2022-11-29T01:59:17.423Z,11.52
2022-11-29T02:01:44.447Z,12.88
2022-11-29T02:04:12.283Z,12.65
2022-11-29T02:06:41.069Z,10.70
2022-11-29T02:09:20.591Z,11.95
2022-11-29T02:12:06.988Z,13.77
2022-11-29T02:14:51.848Z,11.48
2022-11-29T02:17:49.813Z,12.20
2022-11-29T02:20:16.751Z,11.50
2022-11-29T02:23:28.591Z,11.80
2022-11-29T02:26:22.881Z,14.88
2022-11-29T02:29:17.670Z,13.80
2022-11-29T02:32:02.959Z,12.55
2022-11-29T02:34:29.999Z,12.73
2022-11-29T02:37:18.552Z,13.25
2022-11-29T02:40:15.043Z,11.88
2022-11-29T02:42:56.276Z,13.85
2022-11-29T02:45:41.451Z,14.45
2022-11-29T02:48:29.832Z,13.10
2022-11-29T02:51:11.801Z,16.17
2022-11-29T02:53:57.283Z,15.02
2022-11-29T02:57:01.395Z,12.75
2022-11-29T02:59:43.248Z,14.00
2022-11-29T03:02:25.504Z,11.32
2022-11-29T03:05:20.080Z,10.82
2022-11-29T03:08:24.911Z,14.82
2022-11-29T03:11:18.804Z,14.80
2022-11-29T03:13:48.735Z,12.32
2022-11-29T03:16:44.593Z,12.02
2022-11-29T03:19:17.543Z,13.32
2022-11-29T03:21:57.093Z,17.90
2022-11-29T03:24:36.013Z,10.68
2022-11-29T03:27:09.526Z,11.35
2022-11-29T03:29:43.559Z,14.10
2022-11-29T03:32:20.738Z,13.52
2022-11-29T03:34:57.159Z,13.43
2022-11-29T03:37:46.437Z,12.07
2022-11-29T03:40:19.020Z,12.00
2022-11-29T03:43:00.973Z,14.32
2022-11-29T03:45:45.704Z,13.32
2022-11-29T03:48:33.250Z,13.65
2022-11-29T03:51:03.301Z,11.75
2022-11-29T03:54:00.198Z,13.40
2022-11-29T03:56:34.083Z,14.75
2022-11-29T03:59:10.249Z,11.10
2022-11-29T04:02:04.070Z,12.38
2022-11-29T04:04:43.430Z,10.93
2022-11-29T04:07:48.234Z,12.10
2022-11-29T04:13:19.434Z,12.50
2022-11-29T04:15:46.475Z,11.75
2022-11-29T04:18:35.064Z,13.77
2022-11-29T04:21:10.931Z,11.95
2022-11-29T04:23:59.049Z,11.95
2022-11-29T04:27:24.965Z,12.25
2022-11-29T04:30:10.891Z,10.27
2022-11-29T04:33:15.531Z,12.27
2022-11-29T04:38:48.004Z,11.57
2022-11-29T04:41:46.529Z,11.32
2022-11-29T04:44:22.616Z,11.98
2022-11-29T04:47:26.642Z,14.02
2022-11-29T04:50:05.652Z,16.25
2022-11-29T04:52:59.882Z,16.60
2022-11-29T04:55:35.786Z,14.93
2022-11-29T04:58:35.924Z,13.30
2022-11-29T05:01:12.565Z,14.40
2022-11-29T05:03:53.851Z,15.60
2022-11-29T05:06:45.546Z,15.82
2022-11-29T05:09:28.049Z,14.65
2022-11-29T05:12:09.119Z,16.73
2022-11-29T05:15:05.267Z,13.07
2022-11-29T05:18:07.506Z,12.23
2022-11-29T05:21:00.843Z,12.48
2022-11-29T05:23:47.165Z,12.90
2022-11-29T05:26:26.369Z,14.02
2022-11-29T05:28:59.447Z,11.88
2022-11-29T05:31:26.586Z,10.95
2022-11-29T05:34:12.626Z,13.68
2022-11-29T05:37:43.317Z,13.02
2022-11-29T05:40:41.560Z,15.48
2022-11-29T05:43:41.918Z,15.90
2022-11-29T05:46:34.344Z,16.88
2022-11-29T05:49:27.627Z,18.17
2022-11-29T05:52:12.950Z,13.88
2022-11-29T05:54:53.375Z,16.98
2022-11-29T05:57:37.354Z,19.70
2022-11-29T06:03:07.603Z,13.07
2022-11-29T06:05:40.426Z,14.25
2022-11-29T06:08:46.291Z,12.73
2022-11-29T06:11:24.284Z,13.60
2022-11-29T06:14:14.659Z,15.25
2022-11-29T06:16:51.367Z,16.50
2022-11-29T06:19:37.945Z,14.77
2022-11-29T06:22:08.229Z,14.43
2022-11-29T06:24:45.644Z,15.85
2022-11-29T06:27:48.368Z,12.88
2022-11-29T06:30:20.869Z,11.88
2022-11-29T06:32:54.514Z,13.52
2022-11-29T06:36:09.410Z,14.15
2022-11-29T06:41:03.596Z,12.90
2022-11-29T06:43:31.506Z,14.10
2022-11-29T06:46:14.327Z,14.73
2022-11-29T06:49:26.808Z,12.73
2022-11-29T06:52:02.990Z,16.77
2022-11-29T06:54:55.759Z,14.70
2022-11-29T06:57:49.037Z,13.40
2022-11-29T07:00:22.671Z,11.77
2022-11-29T07:03:23.680Z,15.13
2022-11-29T07:05:51.335Z,15.00
2022-11-29T07:08:24.090Z,20.20
2022-11-29T07:10:54.198Z,13.52
2022-11-29T07:13:22.732Z,16.05
2022-11-29T07:16:12.697Z,16.98
2022-11-29T07:19:03.981Z,18.23
2022-11-29T07:21:46.274Z,15.77
2022-11-29T07:24:26.426Z,13.50
2022-11-29T07:27:11.999Z,16.67
2022-11-29T07:29:46.032Z,14.68
2022-11-29T07:32:39.304Z,14.88
2022-11-29T07:35:16.548Z,17.85
2022-11-29T07:38:01.943Z,17.27
2022-11-29T07:40:45.907Z,14.30
2022-11-29T07:43:44.820Z,15.23
2022-11-29T07:46:12.268Z,16.10
2022-11-29T07:48:40.599Z,16.13
2022-11-29T07:51:07.840Z,15.50
2022-11-29T07:53:41.348Z,13.48
2022-11-29T07:56:16.525Z,15.77
2022-11-29T07:58:44.023Z,15.70
2022-11-29T08:01:11.542Z,14.48
2022-11-29T08:03:39.000Z,14.68
2022-11-29T08:06:06.484Z,13.32
2022-11-29T08:08:36.652Z,15.75
2022-11-29T08:11:11.850Z,16.30
2022-11-29T08:13:38.884Z,17.58
2022-11-29T08:16:06.115Z,15.27
2022-11-29T08:18:39.628Z,14.43
2022-11-29T08:21:09.335Z,12.30
2022-11-29T08:23:36.590Z,16.98
2022-11-29T08:26:04.208Z,15.85
2022-11-29T08:28:31.898Z,12.45
2022-11-29T08:31:07.363Z,13.77
2022-11-29T08:33:44.821Z,14.68
2022-11-29T08:36:18.469Z,19.35
2022-11-29T08:41:17.432Z,10.88
2022-11-29T08:43:45.001Z,13.65
2022-11-29T08:46:18.309Z,13.60
2022-11-29T08:48:47.239Z,14.85
2022-11-29T08:51:14.545Z,14.05
2022-11-29T08:53:41.889Z,12.27
2022-11-29T08:59:06.120Z,11.98
2022-11-29T09:01:33.589Z,13.15
2022-11-29T09:04:02.552Z,13.00
2022-11-29T09:06:38.131Z,14.55
2022-11-29T09:09:06.338Z,12.07
2022-11-29T09:11:36.104Z,14.75
2022-11-29T09:14:06.301Z,13.80
2022-11-29T09:16:36.436Z,15.48
2022-11-29T09:19:05.558Z,15.48
2022-11-29T09:21:36.774Z,12.85
2022-11-29T09:24:07.368Z,13.50
2022-11-29T09:26:38.359Z,12.45
2022-11-29T09:29:07.011Z,13.88
2022-11-29T09:31:38.224Z,13.68
2022-11-29T09:34:07.861Z,15.05
2022-11-29T09:36:35.430Z,15.52
2022-11-29T09:39:03.060Z,12.35
2022-11-29T09:42:03.965Z,13.85
2022-11-29T09:45:09.723Z,14.68
2022-11-29T09:47:52.026Z,14.68
2022-11-29T09:50:26.671Z,13.88
2022-11-29T09:53:04.759Z,14.23
2022-11-29T09:55:48.617Z,11.65
2022-11-29T09:58:23.015Z,14.10
2022-11-29T10:01:00.297Z,13.52
2022-11-29T10:03:38.329Z,14.95
2022-11-29T10:06:11.945Z,14.45
2022-11-29T10:08:54.195Z,13.80
2022-11-29T10:11:32.019Z,12.23
2022-11-29T10:14:35.697Z,14.38
2022-11-29T10:17:34.544Z,14.47
2022-11-29T10:20:10.382Z,12.35
2022-11-29T10:23:14.206Z,13.80
2022-11-29T10:25:49.456Z,13.75
2022-11-29T10:28:29.399Z,13.45
2022-11-29T10:31:10.973Z,13.52
2022-11-29T10:33:41.635Z,12.45
2022-11-29T10:36:34.182Z,15.65
2022-11-29T10:39:10.045Z,12.65
2022-11-29T10:41:42.695Z,12.50
2022-11-29T10:44:14.858Z,14.25
2022-11-29T10:46:42.202Z,15.88
2022-11-29T10:49:23.888Z,16.00
2022-11-29T10:51:56.895Z,14.88
2022-11-29T10:54:38.677Z,12.93
2022-11-29T10:57:14.723Z,15.00
2022-11-29T11:00:04.745Z,15.60
2022-11-29T11:02:34.521Z,16.10
2022-11-29T11:05:03.131Z,13.48
2022-11-29T11:07:38.378Z,13.13
2022-11-29T11:10:26.810Z,15.65
2022-11-29T11:13:20.368Z,14.90
2022-11-29T11:15:47.416Z,14.03
2022-11-29T11:18:23.482Z,13.55
2022-11-29T11:21:00.195Z,13.05
2022-11-29T11:23:31.856Z,15.82
2022-11-29T11:26:03.198Z,15.02
2022-11-29T11:28:30.412Z,15.15
2022-11-29T11:31:05.775Z,15.45
2022-11-29T11:33:35.001Z,19.60
2022-11-29T11:36:02.315Z,18.02
2022-11-29T11:38:29.827Z,14.40
2022-11-29T11:41:17.406Z,16.52
2022-11-29T11:44:48.851Z,15.73
2022-11-29T11:47:29.480Z,17.75
2022-11-29T11:50:02.771Z,16.00
2022-11-29T11:52:53.491Z,15.15
2022-11-29T11:55:32.673Z,13.40
2022-11-29T11:58:13.640Z,18.80
2022-11-29T12:01:04.014Z,17.80
2022-11-29T12:03:39.743Z,17.20
2022-11-29T12:06:39.510Z,14.07
2022-11-29T12:09:10.031Z,15.80
2022-11-29T12:12:10.229Z,15.95
2022-11-29T12:14:42.297Z,16.17
2022-11-29T12:17:19.914Z,15.52
2022-11-29T12:20:07.602Z,18.92
2022-11-29T12:22:49.657Z,18.73
2022-11-29T12:25:27.363Z,19.63
2022-11-29T12:27:54.919Z,16.48
2022-11-29T12:30:22.731Z,19.00
2022-11-29T12:33:09.129Z,13.68
2022-11-29T12:35:58.710Z,15.85
2022-11-29T12:38:38.773Z,15.77
2022-11-29T12:41:39.546Z,18.58
2022-11-29T12:44:22.962Z,16.33
2022-11-29T12:47:35.317Z,13.85
2022-11-29T12:50:20.806Z,14.25
2022-11-29T12:52:55.798Z,22.42
2022-11-29T12:55:48.286Z,16.88
2022-11-29T12:58:46.075Z,14.68
2022-11-29T13:01:16.287Z,19.77
2022-11-29T13:04:08.159Z,17.13
2022-11-29T13:07:06.198Z,17.33
2022-11-29T13:10:18.236Z,16.33
2022-11-29T13:12:57.599Z,20.45
2022-11-29T13:15:43.103Z,16.88
2022-11-29T13:18:32.777Z,16.45
2022-11-29T13:21:25.357Z,22.42
2022-11-29T13:24:09.884Z,19.02
2022-11-29T13:26:40.949Z,18.65
2022-11-29T13:29:18.371Z,21.92
2022-11-29T13:31:50.507Z,20.10
2022-11-29T13:34:36.649Z,21.50
2022-11-29T13:37:25.108Z,18.73
2022-11-29T13:40:10.454Z,17.40
2022-11-29T13:42:47.458Z,20.15
2022-11-29T13:45:39.601Z,17.77
2022-11-29T13:48:37.316Z,17.40
2022-11-29T13:51:35.587Z,16.38
2022-11-29T13:54:26.521Z,16.02
2022-11-29T13:57:07.187Z,17.85
2022-11-29T13:59:47.271Z,18.85
2022-11-29T14:02:30.524Z,16.58
2022-11-29T14:04:57.899Z,14.80
2022-11-29T14:07:26.763Z,18.38
2022-11-29T14:10:29.071Z,14.07
2022-11-29T14:12:57.650Z,16.92
2022-11-29T14:15:29.061Z,15.77
2022-11-29T14:18:07.931Z,16.50
2022-11-29T14:21:00.413Z,19.30
2022-11-29T14:23:43.786Z,16.27
2022-11-29T14:26:11.041Z,15.88
2022-11-29T14:28:40.698Z,16.08
2022-11-29T14:31:09.938Z,17.23
2022-11-29T14:33:40.229Z,16.40
2022-11-29T14:36:31.753Z,16.90
2022-11-29T14:39:29.726Z,19.08
2022-11-29T14:42:19.057Z,17.58
2022-11-29T14:44:52.330Z,16.27
2022-11-29T14:47:49.182Z,14.23
2022-11-29T14:50:32.246Z,20.80
2022-11-29T14:52:59.836Z,15.80
2022-11-29T14:55:26.814Z,16.85
2022-11-29T14:58:06.418Z,17.30
2022-11-29T15:00:40.911Z,15.65
2022-11-29T15:03:10.869Z,13.60
2022-11-29T15:05:58.014Z,12.73
2022-11-29T15:08:54.413Z,16.13
2022-11-29T15:11:35.573Z,16.88
2022-11-29T15:14:06.724Z,16.75
2022-11-29T15:16:56.972Z,15.35
2022-11-29T15:19:42.112Z,16.63
2022-11-29T15:22:20.046Z,16.52
2022-11-29T15:25:03.026Z,16.65
2022-11-29T15:27:37.381Z,17.67
2022-11-29T15:30:32.482Z,17.52
2022-11-29T15:33:02.007Z,17.48
2022-11-29T15:35:30.211Z,16.48
2022-11-29T15:37:57.726Z,14.65
2022-11-29T15:40:39.846Z,17.75
2022-11-29T15:43:38.055Z,20.92
2022-11-29T15:46:05.365Z,18.70
2022-11-29T15:48:32.981Z,20.98
2022-11-29T15:51:03.306Z,15.88
2022-11-29T15:53:42.765Z,18.15
2022-11-29T15:56:25.584Z,15.10
2022-11-29T15:59:01.278Z,17.92
2022-11-29T16:01:30.327Z,18.05
2022-11-29T16:03:59.530Z,18.30
2022-11-29T16:06:42.775Z,16.77
2022-11-29T16:09:16.327Z,22.52
2022-11-29T16:14:27.029Z,19.23
2022-11-29T16:16:57.145Z,22.05
2022-11-29T16:19:38.158Z,16.48
2022-11-29T16:22:24.069Z,18.50
2022-11-29T16:24:54.723Z,18.30
2022-11-29T16:27:23.031Z,17.52
2022-11-29T16:29:57.130Z,13.63
2022-11-29T16:32:34.732Z,18.23
2022-11-29T16:35:16.806Z,15.80
2022-11-29T16:37:46.762Z,22.60
2022-11-29T16:40:26.918Z,19.05
2022-11-29T16:43:09.532Z,18.45
2022-11-29T16:45:41.607Z,19.55
2022-11-29T16:48:27.110Z,19.30
2022-11-29T16:51:17.203Z,19.33
2022-11-29T16:53:49.893Z,17.80
2022-11-29T16:56:19.460Z,19.40
2022-11-29T16:59:25.826Z,15.98
2022-11-29T17:01:37.608Z,22.40
2022-11-29T17:04:09.015Z,19.05
2022-11-29T17:06:37.405Z,18.55
2022-11-29T17:12:22.613Z,16.90
2022-11-29T17:14:50.613Z,25.30
2022-11-29T17:17:19.675Z,19.13
2022-11-29T17:19:50.474Z,17.33
2022-11-29T17:22:17.662Z,16.77
2022-11-29T17:25:10.862Z,20.50
2022-11-29T17:28:04.891Z,17.80
2022-11-29T17:30:33.504Z,17.15
2022-11-29T17:33:00.515Z,22.52
2022-11-29T17:35:39.010Z,18.15
2022-11-29T17:38:10.973Z,17.73
2022-11-29T17:43:38.459Z,21.58
2022-11-29T17:46:16.476Z,25.02
2022-11-29T17:48:48.824Z,22.13
2022-11-29T17:51:50.033Z,23.80
2022-11-29T17:54:10.600Z,20.45
2022-11-29T17:56:38.536Z,18.05
2022-11-29T17:59:07.009Z,20.95
2022-11-29T18:02:02.234Z,20.42
2022-11-29T18:04:31.923Z,16.52
2022-11-29T18:13:08.307Z,16.80
2022-11-29T18:16:13.070Z,17.02
2022-11-29T18:18:44.316Z,20.10
2022-11-29T18:21:15.592Z,18.38
2022-11-29T18:23:43.444Z,19.83
2022-11-29T18:26:20.209Z,17.05
2022-11-29T18:32:03.982Z,19.50
2022-11-29T18:34:31.026Z,15.05
2022-11-29T18:39:57.280Z,13.80
2022-11-29T18:42:51.117Z,18.88
2022-11-29T18:45:44.246Z,18.13
2022-11-29T18:48:12.072Z,16.70
2022-11-29T18:50:39.933Z,16.83
2022-11-29T18:53:07.040Z,13.75
2022-11-29T18:55:38.099Z,15.70
2022-11-29T18:58:31.054Z,18.17
2022-11-29T19:01:48.954Z,14.80
2022-11-29T19:04:33.118Z,14.70
2022-11-29T19:07:01.006Z,15.95
2022-11-29T19:09:30.335Z,18.55
2022-11-29T19:12:00.049Z,15.82
2022-11-29T19:14:32.608Z,16.00
2022-11-29T19:17:00.274Z,15.18
2022-11-29T19:19:52.594Z,18.55
2022-11-29T19:22:22.838Z,14.98
2022-11-29T19:25:17.006Z,17.08
2022-11-29T19:27:52.300Z,19.58
2022-11-29T19:30:44.734Z,18.92
2022-11-29T19:33:41.987Z,20.77
2022-11-29T19:36:23.637Z,18.08
2022-11-29T19:39:17.951Z,20.33
2022-11-29T19:41:50.030Z,19.50
2022-11-29T19:45:15.329Z,18.75
2022-11-29T19:47:35.295Z,17.42
2022-11-29T19:50:53.270Z,16.92
2022-11-29T19:53:27.944Z,14.93
2022-11-29T19:56:20.957Z,18.98
2022-11-29T19:59:13.284Z,16.25
2022-11-29T20:01:42.250Z,17.88
2022-11-29T20:04:13.234Z,16.73
2022-11-29T20:09:57.542Z,20.00
2022-11-29T20:12:24.870Z,22.23
2022-11-29T20:15:17.045Z,18.27
2022-11-29T20:17:44.120Z,14.35
2022-11-29T20:20:11.920Z,17.95
2022-11-29T20:22:39.741Z,19.50
2022-11-29T20:25:07.291Z,19.92
2022-11-29T20:27:34.523Z,18.15
2022-11-29T20:30:02.006Z,15.85
2022-11-29T20:32:31.931Z,14.68
2022-11-29T20:35:00.565Z,16.80
2022-11-29T20:37:37.442Z,15.90
2022-11-29T20:40:12.100Z,16.05
2022-11-29T20:42:53.867Z,18.33
2022-11-29T20:45:22.553Z,15.38
2022-11-29T20:47:56.697Z,15.93
2022-11-29T20:50:27.177Z,17.10
2022-11-29T20:53:14.648Z,22.38
2022-11-29T20:55:47.701Z,15.88
2022-11-29T20:58:16.300Z,14.25
2022-11-29T21:00:43.396Z,13.25
2022-11-29T21:03:36.221Z,18.73
2022-11-29T21:06:05.709Z,13.80
2022-11-29T21:08:33.620Z,13.60
2022-11-29T21:11:06.787Z,19.70
2022-11-29T21:13:35.550Z,13.57
2022-11-29T21:16:03.463Z,17.42
2022-11-29T21:18:31.630Z,16.35
2022-11-29T21:21:10.294Z,16.17
2022-11-29T21:24:09.549Z,15.20
2022-11-29T21:26:42.540Z,16.42
2022-11-29T21:29:17.079Z,13.45
2022-11-29T21:31:45.501Z,16.98
2022-11-29T21:34:12.617Z,12.70
2022-11-29T21:36:40.157Z,14.77
2022-11-29T21:39:08.817Z,13.93
2022-11-29T21:41:36.391Z,14.43
2022-11-29T21:44:07.724Z,15.60
2022-11-29T21:46:35.493Z,16.17
2022-11-29T21:49:02.519Z,15.15
2022-11-29T21:51:29.604Z,16.80
2022-11-29T21:53:56.907Z,16.25
2022-11-29T21:56:24.156Z,13.75
2022-11-29T21:58:51.099Z,13.32
2022-11-29T22:01:20.409Z,12.85
2022-11-29T22:03:48.011Z,13.60
2022-11-29T22:06:20.587Z,14.15
2022-11-29T22:08:48.502Z,15.18
2022-11-29T22:11:31.261Z,15.55
2022-11-29T22:14:15.885Z,13.68
2022-11-29T22:16:46.724Z,15.68
2022-11-29T22:19:16.451Z,16.27
2022-11-29T22:21:46.160Z,13.00
2022-11-29T22:24:14.857Z,18.35
2022-11-29T22:26:43.855Z,15.27
2022-11-29T22:29:14.155Z,13.98
2022-11-29T22:31:46.503Z,16.67
2022-11-29T22:34:13.836Z,18.88
2022-11-29T22:36:41.075Z,14.63
2022-11-29T22:39:09.330Z,16.77
2022-11-29T22:41:37.953Z,15.43
2022-11-29T22:44:06.050Z,12.85
2022-11-29T22:46:35.537Z,12.80
2022-11-29T22:49:03.266Z,18.45
2022-11-29T22:51:36.054Z,12.27
2022-11-29T22:54:10.588Z,12.00
2022-11-29T22:56:40.646Z,16.30
2022-11-29T22:59:08.239Z,16.58
2022-11-29T23:01:37.741Z,15.63
2022-11-29T23:04:07.329Z,17.05
2022-11-29T23:06:35.691Z,13.95
2022-11-29T23:09:10.811Z,15.38
2022-11-29T23:11:38.768Z,17.88
2022-11-29T23:14:05.761Z,16.30
2022-11-29T23:16:33.629Z,15.52
2022-11-29T23:19:02.822Z,14.70
2022-11-29T23:21:32.192Z,16.65
2022-11-29T23:24:01.077Z,13.45
2022-11-29T23:26:36.506Z,14.43
2022-11-29T23:29:05.416Z,14.02
2022-11-29T23:31:33.018Z,15.60
2022-11-29T23:34:00.510Z,16.42
2022-11-29T23:36:27.529Z,15.68
2022-11-29T23:38:54.589Z,17.38
2022-11-29T23:41:21.711Z,15.98
2022-11-29T23:43:48.638Z,12.13
2022-11-29T23:46:18.603Z,17.63
2022-11-29T23:48:46.079Z,15.13
2022-11-29T23:51:14.009Z,12.88
2022-11-29T23:53:42.065Z,15.63
2022-11-29T23:56:13.416Z,19.42
2022-11-29T23:58:40.994Z,18.23
